sensor_id;sensor_type;location;lat;lon;timestamp;temperature;humidity
31979;DHT22;18502;43.574;1.276;2023-03-01T00:01:24;0.20;99.90
31979;DHT22;18502;43.574;1.276;2023-03-01T00:03:51;0.20;99.90
31979;DHT22;18502;43.574;1.276;2023-03-01T00:06:17;0.20;99.90
31979;DHT22;18502;43.574;1.276;2023-03-01T00:08:43;0.20;99.90
31979;DHT22;18502;43.574;1.276;2023-03-01T00:11:22;0.20;99.90
31979;DHT22;18502;43.574;1.276;2023-03-01T00:13:50;0.30;99.90
31979;DHT22;18502;43.574;1.276;2023-03-01T00:16:23;0.20;99.90
31979;DHT22;18502;43.574;1.276;2023-03-01T00:18:49;0.20;99.90
31979;DHT22;18502;43.574;1.276;2023-03-01T00:21:16;0.20;99.90
31979;DHT22;18502;43.574;1.276;2023-03-01T00:23:42;0.30;99.90
31979;DHT22;18502;43.574;1.276;2023-03-01T00:26:10;0.30;99.90
31979;DHT22;18502;43.574;1.276;2023-03-01T00:28:36;0.40;99.90
31979;DHT22;18502;43.574;1.276;2023-03-01T00:31:08;0.40;99.90
31979;DHT22;18502;43.574;1.276;2023-03-01T00:33:34;0.40;99.90
31979;DHT22;18502;43.574;1.276;2023-03-01T00:36:00;0.40;99.90
31979;DHT22;18502;43.574;1.276;2023-03-01T00:38:26;0.40;99.90
31979;DHT22;18502;43.574;1.276;2023-03-01T00:40:52;0.40;99.90
31979;DHT22;18502;43.574;1.276;2023-03-01T00:43:18;0.40;99.90
31979;DHT22;18502;43.574;1.276;2023-03-01T00:45:43;0.40;99.90
31979;DHT22;18502;43.574;1.276;2023-03-01T00:48:09;0.40;99.90
31979;DHT22;18502;43.574;1.276;2023-03-01T00:50:34;0.40;99.90
31979;DHT22;18502;43.574;1.276;2023-03-01T00:53:00;0.40;99.90
31979;DHT22;18502;43.574;1.276;2023-03-01T00:55:26;0.40;99.90
31979;DHT22;18502;43.574;1.276;2023-03-01T00:57:52;0.30;99.90
31979;DHT22;18502;43.574;1.276;2023-03-01T01:00:18;0.30;99.90
31979;DHT22;18502;43.574;1.276;2023-03-01T01:02:44;0.30;99.90
31979;DHT22;18502;43.574;1.276;2023-03-01T01:05:11;0.30;99.90
31979;DHT22;18502;43.574;1.276;2023-03-01T01:07:37;0.30;99.90
31979;DHT22;18502;43.574;1.276;2023-03-01T01:10:03;0.20;99.90
31979;DHT22;18502;43.574;1.276;2023-03-01T01:12:28;0.20;99.90
31979;DHT22;18502;43.574;1.276;2023-03-01T06:57:01;-4.10;99.90
31979;DHT22;18502;43.574;1.276;2023-03-01T06:59:27;-4.10;99.90
31979;DHT22;18502;43.574;1.276;2023-03-01T07:01:52;-4.10;99.90
31979;DHT22;18502;43.574;1.276;2023-03-01T07:04:18;-4.00;99.90
31979;DHT22;18502;43.574;1.276;2023-03-01T07:06:44;-4.00;99.90
31979;DHT22;18502;43.574;1.276;2023-03-01T07:09:09;-3.90;99.90
31979;DHT22;18502;43.574;1.276;2023-03-01T07:11:35;-3.80;99.90
31979;DHT22;18502;43.574;1.276;2023-03-01T07:14:01;-3.60;99.90
31979;DHT22;18502;43.574;1.276;2023-03-01T07:16:26;-3.50;99.90
31979;DHT22;18502;43.574;1.276;2023-03-01T07:18:52;-3.50;99.90
31979;DHT22;18502;43.574;1.276;2023-03-01T07:21:17;-3.40;99.90
31979;DHT22;18502;43.574;1.276;2023-03-01T07:23:43;-3.30;99.90
31979;DHT22;18502;43.574;1.276;2023-03-01T07:26:09;-3.30;99.90
31979;DHT22;18502;43.574;1.276;2023-03-01T07:28:34;-3.20;99.90
31979;DHT22;18502;43.574;1.276;2023-03-01T07:31:03;-3.10;99.90
31979;DHT22;18502;43.574;1.276;2023-03-01T07:33:29;-3.00;99.90
31979;DHT22;18502;43.574;1.276;2023-03-01T07:35:59;-2.80;99.90
31979;DHT22;18502;43.574;1.276;2023-03-01T07:38:26;-2.70;99.90
31979;DHT22;18502;43.574;1.276;2023-03-01T07:40:52;-2.60;99.90
31979;DHT22;18502;43.574;1.276;2023-03-01T07:43:18;-2.40;99.90
31979;DHT22;18502;43.574;1.276;2023-03-01T07:45:44;-2.30;99.90
31979;DHT22;18502;43.574;1.276;2023-03-01T07:48:09;-2.20;99.90
31979;DHT22;18502;43.574;1.276;2023-03-01T07:50:35;-2.00;99.90
31979;DHT22;18502;43.574;1.276;2023-03-01T07:53:01;-1.70;99.90
31979;DHT22;18502;43.574;1.276;2023-03-01T07:55:27;-1.60;99.90
31979;DHT22;18502;43.574;1.276;2023-03-01T07:57:53;-1.60;99.90
31979;DHT22;18502;43.574;1.276;2023-03-01T08:00:19;-1.50;99.90
31979;DHT22;18502;43.574;1.276;2023-03-01T08:02:45;-1.40;99.90
31979;DHT22;18502;43.574;1.276;2023-03-01T08:05:11;-1.30;99.90
31979;DHT22;18502;43.574;1.276;2023-03-01T08:07:36;-1.20;99.90
31979;DHT22;18502;43.574;1.276;2023-03-01T08:10:02;-1.10;99.90
31979;DHT22;18502;43.574;1.276;2023-03-01T08:12:28;-1.00;99.90
31979;DHT22;18502;43.574;1.276;2023-03-01T08:14:54;-0.90;99.90
31979;DHT22;18502;43.574;1.276;2023-03-01T08:17:20;-0.80;99.90
31979;DHT22;18502;43.574;1.276;2023-03-01T08:19:46;-0.70;99.90
31979;DHT22;18502;43.574;1.276;2023-03-01T08:22:12;-0.50;99.90
31979;DHT22;18502;43.574;1.276;2023-03-01T08:24:37;-0.40;99.90
31979;DHT22;18502;43.574;1.276;2023-03-01T08:27:03;-0.20;99.90
31979;DHT22;18502;43.574;1.276;2023-03-01T08:29:32;-0.10;99.90
31979;DHT22;18502;43.574;1.276;2023-03-01T08:31:58;0.00;99.90
31979;DHT22;18502;43.574;1.276;2023-03-01T08:34:24;0.20;99.90
31979;DHT22;18502;43.574;1.276;2023-03-01T08:36:50;0.20;99.90
31979;DHT22;18502;43.574;1.276;2023-03-01T08:39:19;0.40;99.90
31979;DHT22;18502;43.574;1.276;2023-03-01T08:41:46;0.50;99.90
31979;DHT22;18502;43.574;1.276;2023-03-01T08:44:13;0.70;99.90
31979;DHT22;18502;43.574;1.276;2023-03-01T08:46:40;0.70;99.90
31979;DHT22;18502;43.574;1.276;2023-03-01T08:49:15;1.00;99.90
31979;DHT22;18502;43.574;1.276;2023-03-01T08:51:42;1.20;99.90
31979;DHT22;18502;43.574;1.276;2023-03-01T08:54:16;1.30;99.90
31979;DHT22;18502;43.574;1.276;2023-03-01T08:56:42;1.50;99.90
31979;DHT22;18502;43.574;1.276;2023-03-01T08:59:10;1.40;99.90
31979;DHT22;18502;43.574;1.276;2023-03-01T09:01:36;1.60;99.90
31979;DHT22;18502;43.574;1.276;2023-03-01T09:04:02;1.70;99.90
31979;DHT22;18502;43.574;1.276;2023-03-01T09:06:31;1.90;99.90
31979;DHT22;18502;43.574;1.276;2023-03-01T09:08:58;2.20;99.90
31979;DHT22;18502;43.574;1.276;2023-03-01T09:11:24;2.40;99.90
31979;DHT22;18502;43.574;1.276;2023-03-01T09:13:50;2.50;99.90
31979;DHT22;18502;43.574;1.276;2023-03-01T09:16:17;2.60;99.90
31979;DHT22;18502;43.574;1.276;2023-03-01T09:18:45;2.80;99.90
31979;DHT22;18502;43.574;1.276;2023-03-01T09:21:14;3.00;99.90
31979;DHT22;18502;43.574;1.276;2023-03-01T09:23:45;3.10;99.90
31979;DHT22;18502;43.574;1.276;2023-03-01T09:26:13;3.30;99.90
31979;DHT22;18502;43.574;1.276;2023-03-01T09:28:42;3.50;99.90
31979;DHT22;18502;43.574;1.276;2023-03-01T09:31:08;3.40;99.90
31979;DHT22;18502;43.574;1.276;2023-03-01T09:33:34;4.70;99.90
31979;DHT22;18502;43.574;1.276;2023-03-01T09:36:05;6.90;96.70
31979;DHT22;18502;43.574;1.276;2023-03-01T09:38:32;8.10;80.70
31979;DHT22;18502;43.574;1.276;2023-03-01T09:41:00;11.30;69.40
31979;DHT22;18502;43.574;1.276;2023-03-01T09:43:43;11.80;48.60
31979;DHT22;18502;43.574;1.276;2023-03-01T09:46:12;11.30;44.50
31979;DHT22;18502;43.574;1.276;2023-03-01T09:48:45;13.20;44.20
31979;DHT22;18502;43.574;1.276;2023-03-01T09:51:18;13.10;37.40
31979;DHT22;18502;43.574;1.276;2023-03-01T09:53:45;11.70;38.00
31979;DHT22;18502;43.574;1.276;2023-03-01T09:56:19;13.40;35.10
31979;DHT22;18502;43.574;1.276;2023-03-01T09:59:25;14.40;34.80
31979;DHT22;18502;43.574;1.276;2023-03-01T10:02:13;14.50;31.90
31979;DHT22;18502;43.574;1.276;2023-03-01T10:04:49;15.30;30.40
31979;DHT22;18502;43.574;1.276;2023-03-01T10:10:06;12.50;30.20
31979;DHT22;18502;43.574;1.276;2023-03-01T10:12:36;13.60;30.40
31979;DHT22;18502;43.574;1.276;2023-03-01T10:15:09;15.40;28.90
31979;DHT22;18502;43.574;1.276;2023-03-01T10:22:38;16.50;26.80
31979;DHT22;18502;43.574;1.276;2023-03-01T10:25:04;14.90;27.30
31979;DHT22;18502;43.574;1.276;2023-03-01T10:27:59;14.30;27.10
31979;DHT22;18502;43.574;1.276;2023-03-01T10:30:37;15.30;25.30
31979;DHT22;18502;43.574;1.276;2023-03-01T10:33:16;15.20;25.70
31979;DHT22;18502;43.574;1.276;2023-03-01T10:35:43;16.70;24.10
31979;DHT22;18502;43.574;1.276;2023-03-01T10:38:11;15.60;23.50
31979;DHT22;18502;43.574;1.276;2023-03-01T10:40:54;15.80;24.60
31979;DHT22;18502;43.574;1.276;2023-03-01T10:43:21;15.10;22.70
31979;DHT22;18502;43.574;1.276;2023-03-01T10:45:47;14.40;24.20
31979;DHT22;18502;43.574;1.276;2023-03-01T10:50:43;15.80;26.20
31979;DHT22;18502;43.574;1.276;2023-03-01T10:53:29;17.80;24.60
31979;DHT22;18502;43.574;1.276;2023-03-01T10:56:11;16.70;24.80
31979;DHT22;18502;43.574;1.276;2023-03-01T10:58:40;16.10;23.70
31979;DHT22;18502;43.574;1.276;2023-03-01T11:03:41;13.00;26.50
31979;DHT22;18502;43.574;1.276;2023-03-01T11:08:46;18.60;25.60
31979;DHT22;18502;43.574;1.276;2023-03-01T11:11:21;19.00;22.00
31979;DHT22;18502;43.574;1.276;2023-03-01T11:13:52;16.80;21.90
31979;DHT22;18502;43.574;1.276;2023-03-01T11:16:27;19.00;21.10
31979;DHT22;18502;43.574;1.276;2023-03-01T11:19:20;20.40;20.60
31979;DHT22;18502;43.574;1.276;2023-03-01T11:22:22;20.70;19.00
31979;DHT22;18502;43.574;1.276;2023-03-01T11:24:50;15.90;19.40
31979;DHT22;18502;43.574;1.276;2023-03-01T11:27:21;19.00;22.10
31979;DHT22;18502;43.574;1.276;2023-03-01T11:29:56;18.40;18.30
31979;DHT22;18502;43.574;1.276;2023-03-01T11:32:26;18.60;19.90
31979;DHT22;18502;43.574;1.276;2023-03-01T11:34:58;20.30;19.90
31979;DHT22;18502;43.574;1.276;2023-03-01T11:37:40;20.40;18.00
31979;DHT22;18502;43.574;1.276;2023-03-01T11:40:27;19.40;18.10
31979;DHT22;18502;43.574;1.276;2023-03-01T11:43:26;19.80;19.80
31979;DHT22;18502;43.574;1.276;2023-03-01T11:57:38;19.60;18.50
31979;DHT22;18502;43.574;1.276;2023-03-01T12:00:25;21.00;16.80
31979;DHT22;18502;43.574;1.276;2023-03-01T12:08:23;19.80;18.60
31979;DHT22;18502;43.574;1.276;2023-03-01T12:19:37;16.30;20.70
31979;DHT22;18502;43.574;1.276;2023-03-01T12:22:14;16.10;21.70
31979;DHT22;18502;43.574;1.276;2023-03-01T12:30:46;21.70;16.70
31979;DHT22;18502;43.574;1.276;2023-03-01T12:38:39;21.10;15.50
31979;DHT22;18502;43.574;1.276;2023-03-01T12:50:18;21.90;16.30
31979;DHT22;18502;43.574;1.276;2023-03-01T12:52:49;23.30;15.70
31979;DHT22;18502;43.574;1.276;2023-03-01T12:55:36;21.60;14.70
31979;DHT22;18502;43.574;1.276;2023-03-01T12:58:09;22.20;15.70
31979;DHT22;18502;43.574;1.276;2023-03-01T13:12:43;20.60;16.60
31979;DHT22;18502;43.574;1.276;2023-03-01T13:17:49;19.80;15.60
31979;DHT22;18502;43.574;1.276;2023-03-01T13:20:17;18.40;15.70
31979;DHT22;18502;43.574;1.276;2023-03-01T13:22:45;16.70;17.70
31979;DHT22;18502;43.574;1.276;2023-03-01T13:25:17;19.10;17.70
31979;DHT22;18502;43.574;1.276;2023-03-01T13:27:44;20.60;16.70
31979;DHT22;18502;43.574;1.276;2023-03-01T13:35:57;22.90;15.40
31979;DHT22;18502;43.574;1.276;2023-03-01T13:38:46;23.00;12.90
31979;DHT22;18502;43.574;1.276;2023-03-01T13:44:00;24.20;14.60
31979;DHT22;18502;43.574;1.276;2023-03-01T13:46:26;24.10;13.50
31979;DHT22;18502;43.574;1.276;2023-03-01T13:48:54;23.00;13.20
31979;DHT22;18502;43.574;1.276;2023-03-01T13:51:26;24.60;13.20
31979;DHT22;18502;43.574;1.276;2023-03-01T13:53:53;22.90;12.90
31979;DHT22;18502;43.574;1.276;2023-03-01T13:56:24;21.70;13.20
31979;DHT22;18502;43.574;1.276;2023-03-01T13:59:17;22.30;14.60
31979;DHT22;18502;43.574;1.276;2023-03-01T14:01:43;25.20;13.20
31979;DHT22;18502;43.574;1.276;2023-03-01T14:04:22;26.30;12.50
31979;DHT22;18502;43.574;1.276;2023-03-01T14:06:48;27.20;12.10
31979;DHT22;18502;43.574;1.276;2023-03-01T14:09:20;23.30;10.30
31979;DHT22;18502;43.574;1.276;2023-03-01T14:20:19;20.90;14.40
31979;DHT22;18502;43.574;1.276;2023-03-01T14:22:46;20.90;14.20
31979;DHT22;18502;43.574;1.276;2023-03-01T14:25:33;19.50;15.20
31979;DHT22;18502;43.574;1.276;2023-03-01T14:30:46;22.80;12.90
31979;DHT22;18502;43.574;1.276;2023-03-01T14:36:08;21.20;11.60
31979;DHT22;18502;43.574;1.276;2023-03-01T14:38:42;21.80;12.90
31979;DHT22;18502;43.574;1.276;2023-03-01T14:41:14;21.90;12.80
31979;DHT22;18502;43.574;1.276;2023-03-01T14:44:05;19.10;14.00
31979;DHT22;18502;43.574;1.276;2023-03-01T14:49:04;22.80;13.40
31979;DHT22;18502;43.574;1.276;2023-03-01T14:51:38;24.20;12.50
31979;DHT22;18502;43.574;1.276;2023-03-01T14:54:28;23.00;11.90
31979;DHT22;18502;43.574;1.276;2023-03-01T14:56:59;24.10;11.90
31979;DHT22;18502;43.574;1.276;2023-03-01T14:59:25;19.60;13.30
31979;DHT22;18502;43.574;1.276;2023-03-01T15:01:55;22.70;13.10
31979;DHT22;18502;43.574;1.276;2023-03-01T15:04:21;20.20;13.30
31979;DHT22;18502;43.574;1.276;2023-03-01T15:06:50;19.90;15.00
31979;DHT22;18502;43.574;1.276;2023-03-01T15:09:17;20.50;13.70
31979;DHT22;18502;43.574;1.276;2023-03-01T15:11:43;20.90;14.20
31979;DHT22;18502;43.574;1.276;2023-03-01T15:14:38;18.30;14.70
31979;DHT22;18502;43.574;1.276;2023-03-01T15:17:26;20.80;13.50
31979;DHT22;18502;43.574;1.276;2023-03-01T15:19:55;21.10;12.90
31979;DHT22;18502;43.574;1.276;2023-03-01T15:22:21;18.10;14.60
31979;DHT22;18502;43.574;1.276;2023-03-01T15:24:49;19.90;15.40
31979;DHT22;18502;43.574;1.276;2023-03-01T15:27:20;20.70;12.90
31979;DHT22;18502;43.574;1.276;2023-03-01T15:29:59;16.80;16.00
31979;DHT22;18502;43.574;1.276;2023-03-01T15:32:33;16.60;16.30
31979;DHT22;18502;43.574;1.276;2023-03-01T15:41:03;15.50;16.60
31979;DHT22;18502;43.574;1.276;2023-03-01T15:46:04;16.70;17.20
31979;DHT22;18502;43.574;1.276;2023-03-01T15:48:30;17.70;15.70
31979;DHT22;18502;43.574;1.276;2023-03-01T15:51:00;17.00;16.70
31979;DHT22;18502;43.574;1.276;2023-03-01T15:53:27;17.50;17.90
31979;DHT22;18502;43.574;1.276;2023-03-01T15:55:53;16.40;17.40
31979;DHT22;18502;43.574;1.276;2023-03-01T15:58:24;17.90;16.50
31979;DHT22;18502;43.574;1.276;2023-03-01T16:00:51;18.00;16.40
31979;DHT22;18502;43.574;1.276;2023-03-01T16:03:22;18.20;16.30
31979;DHT22;18502;43.574;1.276;2023-03-01T16:05:48;17.90;16.70
31979;DHT22;18502;43.574;1.276;2023-03-01T16:08:16;19.50;15.40
31979;DHT22;18502;43.574;1.276;2023-03-01T16:10:42;20.30;14.50
31979;DHT22;18502;43.574;1.276;2023-03-01T16:13:14;18.20;15.70
31979;DHT22;18502;43.574;1.276;2023-03-01T16:15:40;16.50;17.20
31979;DHT22;18502;43.574;1.276;2023-03-01T16:18:06;16.00;18.20
31979;DHT22;18502;43.574;1.276;2023-03-01T16:20:33;16.10;17.50
31979;DHT22;18502;43.574;1.276;2023-03-01T16:23:00;16.60;17.40
31979;DHT22;18502;43.574;1.276;2023-03-01T16:25:28;18.10;17.60
31979;DHT22;18502;43.574;1.276;2023-03-01T16:27:54;17.60;17.10
31979;DHT22;18502;43.574;1.276;2023-03-01T16:30:22;17.00;17.70
31979;DHT22;18502;43.574;1.276;2023-03-01T16:32:48;17.40;17.50
31979;DHT22;18502;43.574;1.276;2023-03-01T16:35:16;17.30;17.10
31979;DHT22;18502;43.574;1.276;2023-03-01T16:37:43;14.60;19.60
31979;DHT22;18502;43.574;1.276;2023-03-01T16:40:20;14.70;20.10
31979;DHT22;18502;43.574;1.276;2023-03-01T16:42:47;14.00;19.70
31979;DHT22;18502;43.574;1.276;2023-03-01T16:45:13;12.70;22.00
31979;DHT22;18502;43.574;1.276;2023-03-01T16:47:39;12.80;22.70
31979;DHT22;18502;43.574;1.276;2023-03-01T16:50:05;12.40;22.70
31979;DHT22;18502;43.574;1.276;2023-03-01T16:52:30;11.90;23.80
31979;DHT22;18502;43.574;1.276;2023-03-01T16:54:56;11.40;24.40
31979;DHT22;18502;43.574;1.276;2023-03-01T16:57:22;11.00;24.90
31979;DHT22;18502;43.574;1.276;2023-03-01T16:59:54;10.60;25.70
31979;DHT22;18502;43.574;1.276;2023-03-01T17:02:20;9.90;26.90
31979;DHT22;18502;43.574;1.276;2023-03-01T17:04:52;9.40;27.20
31979;DHT22;18502;43.574;1.276;2023-03-01T17:07:18;9.50;27.60
31979;DHT22;18502;43.574;1.276;2023-03-01T17:09:44;9.30;27.90
31979;DHT22;18502;43.574;1.276;2023-03-01T17:12:12;8.80;28.50
31979;DHT22;18502;43.574;1.276;2023-03-01T17:14:38;9.10;28.90
31979;DHT22;18502;43.574;1.276;2023-03-01T17:17:10;8.90;28.70
31979;DHT22;18502;43.574;1.276;2023-03-01T17:19:36;8.50;29.40
31979;DHT22;18502;43.574;1.276;2023-03-01T17:22:07;8.50;30.00
31979;DHT22;18502;43.574;1.276;2023-03-01T17:24:34;7.80;30.50
31979;DHT22;18502;43.574;1.276;2023-03-01T17:27:00;7.70;31.50
31979;DHT22;18502;43.574;1.276;2023-03-01T17:29:26;7.40;32.30
31979;DHT22;18502;43.574;1.276;2023-03-01T17:31:52;7.10;32.70
31979;DHT22;18502;43.574;1.276;2023-03-01T17:34:21;7.00;33.50
31979;DHT22;18502;43.574;1.276;2023-03-01T17:36:47;6.90;33.60
31979;DHT22;18502;43.574;1.276;2023-03-01T17:39:15;6.70;34.10
31979;DHT22;18502;43.574;1.276;2023-03-01T17:41:41;6.40;34.70
31979;DHT22;18502;43.574;1.276;2023-03-01T17:44:07;6.30;35.60
31979;DHT22;18502;43.574;1.276;2023-03-01T17:46:34;6.30;35.60
31979;DHT22;18502;43.574;1.276;2023-03-01T17:48:59;6.10;36.10
31979;DHT22;18502;43.574;1.276;2023-03-01T17:51:25;6.00;36.50
31979;DHT22;18502;43.574;1.276;2023-03-01T17:53:51;5.80;37.50
31979;DHT22;18502;43.574;1.276;2023-03-01T17:56:16;5.70;37.90
31979;DHT22;18502;43.574;1.276;2023-03-01T17:58:42;5.60;38.80
31979;DHT22;18502;43.574;1.276;2023-03-01T18:01:16;5.50;38.30
31979;DHT22;18502;43.574;1.276;2023-03-01T18:03:42;5.30;38.80
31979;DHT22;18502;43.574;1.276;2023-03-01T18:06:19;5.30;39.10
31979;DHT22;18502;43.574;1.276;2023-03-01T18:08:46;5.20;39.30
31979;DHT22;18502;43.574;1.276;2023-03-01T18:11:13;5.20;39.30
31979;DHT22;18502;43.574;1.276;2023-03-01T18:13:40;5.00;40.00
31979;DHT22;18502;43.574;1.276;2023-03-01T18:16:11;4.90;40.30
31979;DHT22;18502;43.574;1.276;2023-03-01T18:18:38;5.00;40.60
31979;DHT22;18502;43.574;1.276;2023-03-01T18:21:05;5.00;40.60
31979;DHT22;18502;43.574;1.276;2023-03-01T18:23:32;4.80;41.50
31979;DHT22;18502;43.574;1.276;2023-03-01T18:25:59;4.80;41.80
31979;DHT22;18502;43.574;1.276;2023-03-01T18:28:27;4.70;42.10
31979;DHT22;18502;43.574;1.276;2023-03-01T18:31:01;4.60;42.60
31979;DHT22;18502;43.574;1.276;2023-03-01T18:33:29;4.60;43.00
31979;DHT22;18502;43.574;1.276;2023-03-01T18:35:55;4.50;43.00
31979;DHT22;18502;43.574;1.276;2023-03-01T18:38:21;4.40;43.60
31979;DHT22;18502;43.574;1.276;2023-03-01T18:40:46;4.50;43.60
31979;DHT22;18502;43.574;1.276;2023-03-01T18:43:12;4.30;43.80
31979;DHT22;18502;43.574;1.276;2023-03-01T18:45:38;4.20;44.40
31979;DHT22;18502;43.574;1.276;2023-03-01T18:48:04;4.20;44.60
31979;DHT22;18502;43.574;1.276;2023-03-01T18:50:30;4.30;44.50
31979;DHT22;18502;43.574;1.276;2023-03-01T18:52:57;4.20;44.80
31979;DHT22;18502;43.574;1.276;2023-03-01T18:55:22;4.10;45.20
31979;DHT22;18502;43.574;1.276;2023-03-01T18:57:48;4.00;45.60
31979;DHT22;18502;43.574;1.276;2023-03-01T19:00:14;4.00;46.10
31979;DHT22;18502;43.574;1.276;2023-03-01T19:02:40;4.00;45.90
31979;DHT22;18502;43.574;1.276;2023-03-01T19:05:06;4.00;46.20
31979;DHT22;18502;43.574;1.276;2023-03-01T19:07:32;3.80;46.50
31979;DHT22;18502;43.574;1.276;2023-03-01T19:09:58;3.90;46.70
31979;DHT22;18502;43.574;1.276;2023-03-01T19:12:24;3.80;46.70
31979;DHT22;18502;43.574;1.276;2023-03-01T19:14:52;3.70;47.00
31979;DHT22;18502;43.574;1.276;2023-03-01T19:17:21;3.70;47.40
31979;DHT22;18502;43.574;1.276;2023-03-01T19:19:49;3.60;47.60
31979;DHT22;18502;43.574;1.276;2023-03-01T19:22:15;3.60;47.90
31979;DHT22;18502;43.574;1.276;2023-03-01T19:24:41;3.50;48.10
31979;DHT22;18502;43.574;1.276;2023-03-01T19:27:06;3.40;48.50
31979;DHT22;18502;43.574;1.276;2023-03-01T19:29:32;3.30;48.80
31979;DHT22;18502;43.574;1.276;2023-03-01T19:31:59;3.30;49.10
31979;DHT22;18502;43.574;1.276;2023-03-01T19:34:25;3.20;49.50
31979;DHT22;18502;43.574;1.276;2023-03-01T19:36:50;3.20;49.70
31979;DHT22;18502;43.574;1.276;2023-03-01T19:39:16;3.00;50.00
31979;DHT22;18502;43.574;1.276;2023-03-01T19:41:42;3.00;50.40
31979;DHT22;18502;43.574;1.276;2023-03-01T19:44:09;3.00;50.80
31979;DHT22;18502;43.574;1.276;2023-03-01T19:46:35;2.90;50.80
31979;DHT22;18502;43.574;1.276;2023-03-01T19:49:01;2.80;51.20
31979;DHT22;18502;43.574;1.276;2023-03-01T19:51:28;2.70;51.70
31979;DHT22;18502;43.574;1.276;2023-03-01T19:53:53;2.70;51.80
31979;DHT22;18502;43.574;1.276;2023-03-01T19:56:19;2.70;51.90
31979;DHT22;18502;43.574;1.276;2023-03-01T19:58:45;2.60;52.90
31979;DHT22;18502;43.574;1.276;2023-03-01T20:01:19;2.60;52.60
31979;DHT22;18502;43.574;1.276;2023-03-01T20:03:45;2.50;53.00
31979;DHT22;18502;43.574;1.276;2023-03-01T20:06:14;2.40;53.20
31979;DHT22;18502;43.574;1.276;2023-03-01T20:08:41;2.30;53.60
31979;DHT22;18502;43.574;1.276;2023-03-01T20:11:09;2.40;53.90
31979;DHT22;18502;43.574;1.276;2023-03-01T20:13:35;2.30;54.00
31979;DHT22;18502;43.574;1.276;2023-03-01T20:16:01;2.20;54.30
31979;DHT22;18502;43.574;1.276;2023-03-01T20:18:27;2.30;54.60
31979;DHT22;18502;43.574;1.276;2023-03-01T20:20:53;2.30;54.50
31979;DHT22;18502;43.574;1.276;2023-03-01T20:23:20;2.30;54.90
31979;DHT22;18502;43.574;1.276;2023-03-01T20:25:46;2.20;55.10
31979;DHT22;18502;43.574;1.276;2023-03-01T20:28:16;2.20;55.40
31979;DHT22;18502;43.574;1.276;2023-03-01T20:30:42;2.20;55.70
31979;DHT22;18502;43.574;1.276;2023-03-01T20:33:09;2.10;56.00
31979;DHT22;18502;43.574;1.276;2023-03-01T20:35:34;2.00;56.20
31979;DHT22;18502;43.574;1.276;2023-03-01T20:38:03;2.20;56.30
31979;DHT22;18502;43.574;1.276;2023-03-01T20:40:30;2.20;56.30
31979;DHT22;18502;43.574;1.276;2023-03-01T20:42:59;2.10;56.40
31979;DHT22;18502;43.574;1.276;2023-03-01T20:45:25;2.00;56.80
31979;DHT22;18502;43.574;1.276;2023-03-01T20:47:51;2.00;56.70
31979;DHT22;18502;43.574;1.276;2023-03-01T20:50:17;2.10;57.00
31979;DHT22;18502;43.574;1.276;2023-03-01T20:52:44;2.10;56.90
31979;DHT22;18502;43.574;1.276;2023-03-01T20:55:10;2.10;56.90
31979;DHT22;18502;43.574;1.276;2023-03-01T20:57:36;2.10;57.00
31979;DHT22;18502;43.574;1.276;2023-03-01T21:00:03;2.20;56.80
31979;DHT22;18502;43.574;1.276;2023-03-01T21:02:29;2.00;57.10
31979;DHT22;18502;43.574;1.276;2023-03-01T21:04:54;2.10;57.10
31979;DHT22;18502;43.574;1.276;2023-03-01T21:07:20;2.00;57.40
31979;DHT22;18502;43.574;1.276;2023-03-01T21:09:46;2.00;57.40
31979;DHT22;18502;43.574;1.276;2023-03-01T21:12:12;1.90;57.80
31979;DHT22;18502;43.574;1.276;2023-03-01T21:14:38;1.90;57.90
31979;DHT22;18502;43.574;1.276;2023-03-01T21:17:17;2.00;58.00
31979;DHT22;18502;43.574;1.276;2023-03-01T21:19:44;1.90;58.40
31979;DHT22;18502;43.574;1.276;2023-03-01T21:22:12;1.80;58.50
31979;DHT22;18502;43.574;1.276;2023-03-01T21:24:38;2.00;58.40
31979;DHT22;18502;43.574;1.276;2023-03-01T21:27:04;2.00;58.50
31979;DHT22;18502;43.574;1.276;2023-03-01T21:29:32;1.90;58.60
31979;DHT22;18502;43.574;1.276;2023-03-01T21:31:58;1.90;58.50
31979;DHT22;18502;43.574;1.276;2023-03-01T21:34:24;2.00;58.70
31979;DHT22;18502;43.574;1.276;2023-03-01T21:36:49;2.00;58.60
31979;DHT22;18502;43.574;1.276;2023-03-01T21:39:15;2.00;58.70
31979;DHT22;18502;43.574;1.276;2023-03-01T21:41:41;1.90;58.60
31979;DHT22;18502;43.574;1.276;2023-03-01T21:44:06;2.00;58.70
31979;DHT22;18502;43.574;1.276;2023-03-01T21:46:35;1.90;59.00
31979;DHT22;18502;43.574;1.276;2023-03-01T21:49:01;1.80;59.20
31979;DHT22;18502;43.574;1.276;2023-03-01T21:51:29;1.80;59.50
31979;DHT22;18502;43.574;1.276;2023-03-01T21:53:57;1.70;59.60
31979;DHT22;18502;43.574;1.276;2023-03-01T21:56:27;1.60;60.00
31979;DHT22;18502;43.574;1.276;2023-03-01T21:58:55;1.70;60.00
31979;DHT22;18502;43.574;1.276;2023-03-01T22:01:23;1.60;60.50
31979;DHT22;18502;43.574;1.276;2023-03-01T22:03:50;1.50;60.70
31979;DHT22;18502;43.574;1.276;2023-03-01T22:06:16;1.60;60.90
31979;DHT22;18502;43.574;1.276;2023-03-01T22:08:57;1.60;60.90
31979;DHT22;18502;43.574;1.276;2023-03-01T22:11:24;1.50;61.30
31979;DHT22;18502;43.574;1.276;2023-03-01T22:13:53;1.50;61.40
31979;DHT22;18502;43.574;1.276;2023-03-01T22:16:22;1.50;60.90
31979;DHT22;18502;43.574;1.276;2023-03-01T22:18:49;1.50;61.30
31979;DHT22;18502;43.574;1.276;2023-03-01T22:21:15;1.50;61.50
31979;DHT22;18502;43.574;1.276;2023-03-01T22:23:41;1.50;61.90
31979;DHT22;18502;43.574;1.276;2023-03-01T22:26:08;1.60;61.70
31979;DHT22;18502;43.574;1.276;2023-03-01T22:28:44;1.60;62.00
31979;DHT22;18502;43.574;1.276;2023-03-01T22:31:09;1.60;62.00
31979;DHT22;18502;43.574;1.276;2023-03-01T22:33:35;1.60;61.90
31979;DHT22;18502;43.574;1.276;2023-03-01T22:36:00;1.70;62.10
31979;DHT22;18502;43.574;1.276;2023-03-01T22:38:26;1.70;62.30
31979;DHT22;18502;43.574;1.276;2023-03-01T22:40:56;1.80;62.30
31979;DHT22;18502;43.574;1.276;2023-03-01T22:43:22;1.70;62.80
31979;DHT22;18502;43.574;1.276;2023-03-01T22:45:48;1.70;63.10
31979;DHT22;18502;43.574;1.276;2023-03-01T22:48:13;1.60;63.90
31979;DHT22;18502;43.574;1.276;2023-03-01T22:50:43;1.40;64.70
31979;DHT22;18502;43.574;1.276;2023-03-01T22:53:09;1.20;65.40
31979;DHT22;18502;43.574;1.276;2023-03-01T22:55:37;1.20;66.10
31979;DHT22;18502;43.574;1.276;2023-03-01T22:58:03;1.20;66.40
31979;DHT22;18502;43.574;1.276;2023-03-01T23:00:29;1.20;68.20
31979;DHT22;18502;43.574;1.276;2023-03-01T23:02:54;1.20;67.90
31979;DHT22;18502;43.574;1.276;2023-03-01T23:05:20;1.20;68.60
31979;DHT22;18502;43.574;1.276;2023-03-01T23:07:46;1.20;69.70
31979;DHT22;18502;43.574;1.276;2023-03-01T23:10:13;1.10;70.60
31979;DHT22;18502;43.574;1.276;2023-03-01T23:12:39;1.10;71.30
31979;DHT22;18502;43.574;1.276;2023-03-01T23:15:06;1.00;72.30
31979;DHT22;18502;43.574;1.276;2023-03-01T23:17:32;1.00;72.80
31979;DHT22;18502;43.574;1.276;2023-03-01T23:19:58;0.90;73.50
31979;DHT22;18502;43.574;1.276;2023-03-01T23:22:23;0.80;74.40